Terminal Aerodrome Forecast
Issued by NWS

Home | Current Version | Previous Version | Text Only | Print | Product List | Glossary On
Versions: 1 2 3 4 5 6 7 8 9 10 11 12 13 14 15 16 17 18 19
000
FTUS43 KDVN 140348 AAA
TAFCID
TAF AMD
KCID 140348Z 1404/1424 34015G23KT P6SM BKN025
     FM140600 34012KT P6SM BKN025
     FM141500 30006KT P6SM BKN025=

USA.gov is the U.S. government's official web portal to all federal, state and local government web resources and services.